< Cyclone 202006 2020 Season Cyclone 202008 >
Cyclone 202007 (Esther)
General InformationTrack Information on Google MapsDetailed Wind Information || ResourceGoogle EarthGE AnimationAtom FeedGeoJSON
Year Month Day Hour Lat. Long. Pressure (hPa) Wind (kt) Class Image Chart
2020 2 21 00 -13.3 139.8 1003 20 2 Image --
2020 2 21 06 -13.3 139.7 1001 20 2 Image --
2020 2 21 12 -13.3 139.5 1001 20 2 Image --
2020 2 21 18 -13.3 139.2 1001 20 2 Image --
2020 2 22 00 -13.4 138.8 1001 20 2 Image --
2020 2 22 06 -13.5 138.4 1000 20 2 Image --
2020 2 22 12 -13.6 138.2 1000 20 2 Image --
2020 2 22 18 -14.0 138.3 999 20 2 Image --
2020 2 23 00 -14.0 138.6 1000 25 2 Image --
2020 2 23 06 -14.3 138.9 997 25 2 Image --
2020 2 23 12 -15.4 139.4 994 30 2 Image --
2020 2 23 18 -15.9 139.1 991 40 3 Image --
2020 2 24 00 -16.6 138.7 990 40 3 Image --
2020 2 24 06 -16.6 137.6 992 40 3 Image --
2020 2 24 12 -16.7 137.0 992 40 3 Image --
2020 2 24 18 -16.8 136.4 992 30 2 Image --
2020 2 25 00 -17.1 135.8 994 30 2 Image --
2020 2 25 06 -17.1 135.0 993 30 2 Image --
2020 2 25 12 -17.0 134.2 993 30 2 Image --
2020 2 25 18 -16.7 133.7 994 30 2 Image --
2020 2 26 00 -16.5 133.1 996 25 2 Image --
2020 2 26 06 -16.3 132.6 995 25 2 Image --
2020 2 26 12 -16.0 131.9 995 20 2 Image --
2020 2 26 18 -15.6 131.4 993 20 2 Image --
2020 2 27 00 -15.4 130.7 996 20 2 Image --
2020 2 27 06 -15.2 130.0 997 20 2 Image --
2020 2 27 12 -15.2 129.5 997 20 2 Image --
2020 2 27 18 -15.1 128.9 992 35 3 Image --
2020 2 28 00 -15.0 128.0 990 40 3 Image --
2020 2 28 06 -15.2 127.1 990 30 2 Image --
2020 2 28 09 -15.3 126.7 992 30 2 Image --
2020 2 28 12 -15.4 126.3 994 30 2 Image --
2020 2 28 18 -15.5 125.1 996 30 2 Image --
2020 2 29 00 -15.9 124.4 996 30 2 Image --
2020 2 29 06 -16.6 123.8 990 40 3 Image --
2020 2 29 12 -16.9 123.7 991 35 3 Image --
2020 2 29 18 -17.7 123.6 988 35 3 Image --
2020 3 1 00 -18.1 123.8 992 30 2 Image --
2020 3 1 06 -18.4 124.5 993 30 2 Image --
2020 3 1 12 -18.5 125.2 992 20 2 Image --
2020 3 1 18 -18.7 126.2 993 20 2 Image --
2020 3 2 00 -18.7 126.8 994 20 2 Image --
2020 3 2 06 -18.5 127.8 995 20 2 Image --
2020 3 3 00 -18.6 130.0 999 20 2 Image --
2020 3 3 06 -18.9 130.8 998 20 2 Image --
2020 3 3 12 -19.1 132.5 1000 20 2 Image --
2020 3 4 00 -19.7 134.0 1002 20 2 Image --
< Cyclone 202006 2020 Season Cyclone 202008 >

Help